createdAt,value
2023-04-28T00:02:17.705Z,10.99
2023-04-28T00:04:57.159Z,11.02
2023-04-28T00:07:32.036Z,10.93
2023-04-28T00:10:13.111Z,10.78
2023-04-28T00:12:46.610Z,10.72
2023-04-28T00:15:26.168Z,10.60
2023-04-28T00:17:59.632Z,10.56
2023-04-28T00:20:39.226Z,10.56
2023-04-28T00:23:20.126Z,10.49
2023-04-28T00:26:01.096Z,10.52
2023-04-28T00:28:41.281Z,10.45
2023-04-28T00:31:15.231Z,10.41
2023-04-28T00:33:55.123Z,10.45
2023-04-28T00:36:28.849Z,10.40
2023-04-28T00:39:09.155Z,10.35
2023-04-28T00:41:42.589Z,10.31
2023-04-28T00:44:30.182Z,10.26
2023-04-28T00:47:03.950Z,10.21
2023-04-28T00:49:43.119Z,10.17
2023-04-28T00:52:16.551Z,10.16
2023-04-28T00:54:57.177Z,10.11
2023-04-28T00:57:31.370Z,10.05
2023-04-28T01:00:12.232Z,10.08
2023-04-28T01:02:52.439Z,10.03
2023-04-28T01:05:33.160Z,9.95
2023-04-28T01:08:13.115Z,9.96
2023-04-28T01:10:55.142Z,9.93
2023-04-28T01:13:49.979Z,9.93
2023-04-28T01:16:29.300Z,9.85
2023-04-28T01:19:09.104Z,9.87
2023-04-28T01:21:42.622Z,9.89
2023-04-28T01:24:29.138Z,9.86
2023-04-28T01:27:05.960Z,9.85
2023-04-28T01:29:47.228Z,9.80
2023-04-28T01:32:20.709Z,9.82
2023-04-28T01:35:00.173Z,9.78
2023-04-28T01:37:35.374Z,9.83
2023-04-28T01:40:18.127Z,9.78
2023-04-28T01:42:58.156Z,9.81
2023-04-28T01:45:38.126Z,9.83
2023-04-28T01:48:18.179Z,9.86
2023-04-28T01:50:58.144Z,9.78
2023-04-28T01:53:38.242Z,9.81
2023-04-28T01:56:20.145Z,9.78
2023-04-28T01:59:02.138Z,9.79
2023-04-28T02:01:35.614Z,9.83
2023-04-28T02:04:15.493Z,9.80
2023-04-28T02:06:55.195Z,9.79
2023-04-28T02:09:28.669Z,9.84
2023-04-28T02:12:10.178Z,9.85
2023-04-28T02:14:43.663Z,9.85
2023-04-28T02:17:32.224Z,9.85
2023-04-28T02:20:13.195Z,9.79
2023-04-28T02:22:48.491Z,9.83
2023-04-28T02:25:28.222Z,9.82
2023-04-28T02:28:09.140Z,9.87
2023-04-28T02:30:42.620Z,9.83
2023-04-28T02:33:23.391Z,9.83
2023-04-28T02:36:05.190Z,9.85
2023-04-28T02:38:46.138Z,9.78
2023-04-28T02:41:26.163Z,9.75
2023-04-28T02:44:07.131Z,9.79
2023-04-28T02:46:47.249Z,9.84
2023-04-28T02:49:20.567Z,9.86
2023-04-28T02:52:00.199Z,9.84
2023-04-28T02:54:40.189Z,9.84
2023-04-28T02:57:13.586Z,9.85
2023-04-28T02:59:54.262Z,9.88
2023-04-28T03:02:33.140Z,9.90
2023-04-28T03:05:13.165Z,9.93
2023-04-28T03:07:46.758Z,9.89
2023-04-28T03:10:26.140Z,9.92
2023-04-28T03:13:00.814Z,9.92
2023-04-28T03:15:41.201Z,9.92
2023-04-28T03:18:14.648Z,9.84
2023-04-28T03:20:54.195Z,9.75
2023-04-28T03:23:28.194Z,9.71
2023-04-28T03:26:09.184Z,9.58
2023-04-28T03:28:42.748Z,9.66
2023-04-28T03:31:23.411Z,9.68
2023-04-28T03:33:56.701Z,9.78
2023-04-28T03:36:36.243Z,9.80
2023-04-28T03:39:21.619Z,9.91
2023-04-28T03:42:01.158Z,9.94
2023-04-28T03:44:44.379Z,10.00
2023-04-28T03:47:19.279Z,10.05
2023-04-28T03:49:59.175Z,10.04
2023-04-28T03:52:39.147Z,10.13
2023-04-28T03:55:19.187Z,10.13
2023-04-28T03:57:53.164Z,10.14
2023-04-28T04:00:33.164Z,10.20
2023-04-28T04:03:08.171Z,10.24
2023-04-28T04:05:50.294Z,10.23
2023-04-28T04:08:30.158Z,10.27
2023-04-28T04:11:03.725Z,10.28
2023-04-28T04:13:43.209Z,10.27
2023-04-28T04:16:17.596Z,10.26
2023-04-28T04:19:00.172Z,10.37
2023-04-28T04:21:43.971Z,10.35
2023-04-28T04:24:23.190Z,10.38
2023-04-28T04:26:57.292Z,10.38
2023-04-28T04:29:43.194Z,10.41
2023-04-28T04:32:16.680Z,10.40
2023-04-28T04:34:57.215Z,10.42
2023-04-28T04:37:37.233Z,10.43
2023-04-28T04:40:18.236Z,10.52
2023-04-28T04:42:58.188Z,10.46
2023-04-28T04:45:44.197Z,10.51
2023-04-28T04:48:24.203Z,10.50
2023-04-28T04:51:00.135Z,10.54
2023-04-28T04:53:41.249Z,10.56
2023-04-28T04:56:15.126Z,10.56
2023-04-28T04:58:57.172Z,10.59
2023-04-28T05:01:43.017Z,10.59
2023-04-28T05:04:22.875Z,10.59
2023-04-28T05:07:04.173Z,10.62
2023-04-28T05:09:46.222Z,10.62
2023-04-28T05:12:26.182Z,10.68
2023-04-28T05:15:06.230Z,10.71
2023-04-28T05:17:46.055Z,10.71
2023-04-28T05:20:25.167Z,10.71
2023-04-28T05:22:59.933Z,10.71
2023-04-28T05:25:39.174Z,10.76
2023-04-28T05:28:12.973Z,10.79
2023-04-28T05:30:53.230Z,10.77
2023-04-28T05:33:33.198Z,10.77
2023-04-28T05:36:14.188Z,10.78
2023-04-28T05:38:42.244Z,10.79
2023-04-28T05:41:09.009Z,10.81
2023-04-28T05:43:35.646Z,10.81
2023-04-28T05:46:02.974Z,10.83
2023-04-28T05:48:29.977Z,10.93
2023-04-28T05:50:56.658Z,10.99
2023-04-28T05:53:23.406Z,11.09
2023-04-28T05:55:53.102Z,11.10
2023-04-28T05:58:20.534Z,11.13
2023-04-28T06:00:47.469Z,11.22
2023-04-28T06:03:14.147Z,11.29
2023-04-28T06:05:41.360Z,11.47
2023-04-28T06:08:08.202Z,11.66
2023-04-28T06:10:34.773Z,11.75
2023-04-28T06:13:10.709Z,11.75
2023-04-28T06:15:51.236Z,11.76
2023-04-28T06:18:31.225Z,11.73
2023-04-28T06:21:04.734Z,11.79
2023-04-28T06:23:31.384Z,11.89
2023-04-28T06:25:58.278Z,12.01
2023-04-28T06:28:26.200Z,12.10
2023-04-28T06:30:53.334Z,12.18
2023-04-28T06:33:20.004Z,12.31
2023-04-28T06:35:46.809Z,12.59
2023-04-28T06:38:14.873Z,12.62
2023-04-28T06:40:41.482Z,12.59
2023-04-28T06:43:08.587Z,12.49
2023-04-28T06:45:44.714Z,12.40
2023-04-28T06:48:11.406Z,12.36
2023-04-28T06:50:38.853Z,12.25
2023-04-28T06:53:06.827Z,12.23
2023-04-28T06:55:34.145Z,12.18
2023-04-28T06:58:00.781Z,12.14
2023-04-28T07:00:27.522Z,12.07
2023-04-28T07:02:55.629Z,12.07
2023-04-28T07:05:22.327Z,12.07
2023-04-28T07:07:48.934Z,12.11
2023-04-28T07:10:15.732Z,12.03
2023-04-28T07:12:42.488Z,12.04
2023-04-28T07:15:10.466Z,12.03
2023-04-28T07:17:37.372Z,11.94
2023-04-28T07:20:06.789Z,11.97
2023-04-28T07:22:33.459Z,11.97
2023-04-28T07:25:00.075Z,12.01
2023-04-28T07:27:26.729Z,12.10
2023-04-28T07:29:53.514Z,12.25
2023-04-28T07:32:20.218Z,12.52
2023-04-28T07:34:46.962Z,12.68
2023-04-28T07:37:15.007Z,13.00
2023-04-28T07:39:41.609Z,13.26
2023-04-28T07:42:08.250Z,13.46
2023-04-28T07:44:35.355Z,13.46
2023-04-28T07:47:02.494Z,13.63
2023-04-28T07:49:29.812Z,13.71
2023-04-28T07:51:56.471Z,13.88
2023-04-28T07:54:25.291Z,13.96
2023-04-28T07:56:52.037Z,14.04
2023-04-28T07:59:18.833Z,14.07
2023-04-28T08:01:45.830Z,14.33
2023-04-28T08:04:12.769Z,14.53
2023-04-28T08:06:40.716Z,14.62
2023-04-28T08:09:07.356Z,14.71
2023-04-28T08:11:35.261Z,14.83
2023-04-28T08:14:01.844Z,15.19
2023-04-28T08:16:28.666Z,15.35
2023-04-28T08:18:55.342Z,15.38
2023-04-28T08:21:22.079Z,15.12
2023-04-28T08:23:48.697Z,14.99
2023-04-28T08:26:15.314Z,14.74
2023-04-28T08:28:44.657Z,14.59
2023-04-28T08:31:11.311Z,14.48
2023-04-28T08:33:37.879Z,14.38
2023-04-28T08:36:05.328Z,14.33
2023-04-28T08:38:31.964Z,14.31
2023-04-28T08:40:58.590Z,14.35
2023-04-28T08:43:25.720Z,14.32
2023-04-28T08:45:53.972Z,14.49
2023-04-28T08:48:22.170Z,14.63
2023-04-28T08:50:50.230Z,14.64
2023-04-28T08:53:22.588Z,14.66
2023-04-28T08:55:50.578Z,14.78
2023-04-28T08:58:18.730Z,14.69
2023-04-28T09:00:45.273Z,14.69
2023-04-28T09:03:13.874Z,14.75
2023-04-28T09:05:40.731Z,14.77
2023-04-28T09:08:07.614Z,14.84
2023-04-28T09:10:34.390Z,14.91
2023-04-28T09:13:00.997Z,14.88
2023-04-28T09:15:34.099Z,15.05
2023-04-28T09:18:02.034Z,15.08
2023-04-28T09:20:32.586Z,15.09
2023-04-28T09:23:14.178Z,15.12
2023-04-28T09:25:40.789Z,15.10
2023-04-28T09:28:20.032Z,15.18
2023-04-28T09:30:46.691Z,15.28
2023-04-28T09:33:13.736Z,15.40
2023-04-28T09:35:43.141Z,15.56
2023-04-28T09:38:09.737Z,15.64
2023-04-28T09:40:49.970Z,15.77
2023-04-28T09:43:23.934Z,15.72
2023-04-28T09:45:50.663Z,15.68
2023-04-28T09:48:17.321Z,15.70
2023-04-28T09:50:45.376Z,15.66
2023-04-28T09:53:12.031Z,15.63
2023-04-28T09:55:43.984Z,15.65
2023-04-28T09:58:13.238Z,15.72
2023-04-28T10:00:40.909Z,15.72
2023-04-28T10:03:09.032Z,15.66
2023-04-28T10:05:36.072Z,15.55
2023-04-28T10:08:05.006Z,15.49
2023-04-28T10:10:31.878Z,15.41
2023-04-28T10:12:58.566Z,15.43
2023-04-28T10:15:25.419Z,15.32
2023-04-28T10:17:53.452Z,15.24
2023-04-28T10:20:20.232Z,15.20
2023-04-28T10:22:56.931Z,15.27
2023-04-28T10:25:31.122Z,15.21
2023-04-28T10:27:58.705Z,15.14
2023-04-28T10:30:28.685Z,15.07
2023-04-28T10:33:24.458Z,15.07
2023-04-28T10:35:51.278Z,15.10
2023-04-28T10:38:18.901Z,15.32
2023-04-28T10:40:48.302Z,15.56
2023-04-28T10:43:37.877Z,15.86
2023-04-28T10:46:13.536Z,16.11
2023-04-28T10:48:56.163Z,16.35
2023-04-28T10:51:30.042Z,16.58
2023-04-28T10:54:18.719Z,16.73
2023-04-28T10:57:18.707Z,16.98
2023-04-28T10:59:45.498Z,16.88
2023-04-28T11:02:48.729Z,16.77
2023-04-28T11:05:17.310Z,16.65
2023-04-28T11:08:28.636Z,16.65
2023-04-28T11:11:20.656Z,16.50
2023-04-28T11:13:49.459Z,16.33
2023-04-28T11:16:31.315Z,16.25
2023-04-28T11:19:11.274Z,16.21
2023-04-28T11:21:45.099Z,16.15
2023-04-28T11:24:32.270Z,16.50
2023-04-28T11:27:05.780Z,16.79
2023-04-28T11:29:47.299Z,17.20
2023-04-28T11:32:27.276Z,18.17
2023-04-28T11:35:07.279Z,18.78
2023-04-28T11:37:47.387Z,19.43
2023-04-28T11:40:21.538Z,20.08
2023-04-28T11:42:56.651Z,20.81
2023-04-28T11:45:26.199Z,21.38
2023-04-28T11:47:52.864Z,21.40
2023-04-28T11:50:37.410Z,22.11
2023-04-28T11:53:04.056Z,22.07
2023-04-28T11:55:30.772Z,22.19
2023-04-28T11:58:18.465Z,21.86
2023-04-28T12:00:46.427Z,20.99
2023-04-28T12:03:13.277Z,20.37
2023-04-28T12:05:44.495Z,19.85
2023-04-28T12:08:11.115Z,19.26
2023-04-28T12:10:37.742Z,18.79
2023-04-28T12:13:15.659Z,18.58
2023-04-28T12:15:42.366Z,18.33
2023-04-28T12:18:11.544Z,18.20
2023-04-28T12:20:39.372Z,18.10
2023-04-28T12:23:06.439Z,18.03
2023-04-28T12:25:33.344Z,18.08
2023-04-28T12:28:00.775Z,17.98
2023-04-28T12:30:28.102Z,18.01
2023-04-28T12:32:55.306Z,18.03
2023-04-28T12:35:23.723Z,18.14
2023-04-28T12:37:50.245Z,18.22
2023-04-28T12:40:17.012Z,18.39
2023-04-28T12:42:43.674Z,18.46
2023-04-28T12:45:10.840Z,18.68
2023-04-28T12:47:38.000Z,18.75
2023-04-28T12:50:05.943Z,18.71
2023-04-28T12:52:33.908Z,18.54
2023-04-28T12:55:00.535Z,18.42
2023-04-28T12:57:27.113Z,18.31
2023-04-28T12:59:53.752Z,18.16
2023-04-28T13:02:20.413Z,18.18
2023-04-28T13:04:47.161Z,18.17
2023-04-28T13:07:14.725Z,18.52
2023-04-28T13:09:43.114Z,18.93
2023-04-28T13:12:10.365Z,20.18
2023-04-28T13:14:37.018Z,21.77
2023-04-28T13:17:03.669Z,22.36
2023-04-28T13:19:30.306Z,22.27
2023-04-28T13:21:57.163Z,21.50
2023-04-28T13:24:23.693Z,21.17
2023-04-28T13:26:51.720Z,20.68
2023-04-28T13:29:18.394Z,20.25
2023-04-28T13:31:45.121Z,19.74
2023-04-28T13:34:11.794Z,19.25
2023-04-28T13:36:38.358Z,18.91
2023-04-28T13:39:04.946Z,19.29
2023-04-28T13:41:31.667Z,19.60
2023-04-28T13:43:59.598Z,19.77
2023-04-28T13:46:27.701Z,19.72
2023-04-28T13:48:54.286Z,19.45
2023-04-28T13:51:20.894Z,19.26
2023-04-28T13:53:47.473Z,19.11
2023-04-28T13:56:14.164Z,18.95
2023-04-28T13:58:40.753Z,18.96
2023-04-28T14:01:09.046Z,18.58
2023-04-28T14:03:35.989Z,18.25
2023-04-28T14:06:02.770Z,17.94
2023-04-28T14:08:29.395Z,17.76
2023-04-28T14:10:55.995Z,17.63
2023-04-28T14:13:22.567Z,17.49
2023-04-28T14:15:58.368Z,17.34
2023-04-28T14:18:27.479Z,17.20
2023-04-28T14:20:54.234Z,16.94
2023-04-28T14:23:20.961Z,16.72
2023-04-28T14:25:47.614Z,16.50
2023-04-28T14:28:14.227Z,16.33
2023-04-28T14:30:40.842Z,16.26
2023-04-28T14:33:07.503Z,16.27
2023-04-28T14:35:35.491Z,16.50
2023-04-28T14:38:03.147Z,16.60
2023-04-28T14:40:29.973Z,16.59
2023-04-28T14:42:59.671Z,16.73
2023-04-28T14:45:26.372Z,16.96
2023-04-28T14:47:53.126Z,17.00
2023-04-28T14:50:19.756Z,17.13
2023-04-28T14:52:47.762Z,17.24
2023-04-28T14:55:14.334Z,17.24
2023-04-28T14:57:40.917Z,17.33
2023-04-28T15:00:08.618Z,17.51
2023-04-28T15:02:36.140Z,17.49
2023-04-28T15:06:18.044Z,17.19
2023-04-28T15:08:44.654Z,17.00
2023-04-28T15:11:11.314Z,16.87
2023-04-28T15:13:37.901Z,16.72
2023-04-28T15:16:05.048Z,16.59
2023-04-28T15:18:31.601Z,16.47
2023-04-28T15:20:58.250Z,16.42
2023-04-28T15:23:26.379Z,16.35
2023-04-28T15:25:52.987Z,16.27
2023-04-28T15:28:19.685Z,16.25
2023-04-28T15:30:46.230Z,16.24
2023-04-28T15:33:12.837Z,16.21
2023-04-28T15:35:39.415Z,16.21
2023-04-28T15:38:05.939Z,16.13
2023-04-28T15:40:33.950Z,16.09
2023-04-28T15:43:00.496Z,16.01
2023-04-28T15:45:27.253Z,15.96
2023-04-28T15:47:53.865Z,15.90
2023-04-28T15:50:22.029Z,15.82
2023-04-28T15:52:48.596Z,15.74
2023-04-28T15:55:16.884Z,15.70
2023-04-28T15:57:45.857Z,15.60
2023-04-28T16:00:13.925Z,15.57
2023-04-28T16:02:41.371Z,15.54
2023-04-28T16:05:08.596Z,15.57
2023-04-28T16:07:35.515Z,15.57
2023-04-28T16:10:02.267Z,15.54
2023-04-28T16:12:29.016Z,15.62
2023-04-28T16:14:57.038Z,15.56
2023-04-28T16:17:23.594Z,15.53
2023-04-28T16:19:50.234Z,15.51
2023-04-28T16:22:16.798Z,15.47
2023-04-28T16:24:43.478Z,15.38
2023-04-28T16:27:10.430Z,15.39
2023-04-28T16:29:37.115Z,15.28
2023-04-28T16:32:05.909Z,15.28
2023-04-28T16:34:32.701Z,15.16
2023-04-28T16:36:59.523Z,15.06
2023-04-28T16:39:26.094Z,15.07
2023-04-28T16:41:52.673Z,15.02
2023-04-28T16:44:19.207Z,15.06
2023-04-28T16:46:45.763Z,15.04
2023-04-28T16:49:13.641Z,15.02
2023-04-28T16:51:40.171Z,15.02
2023-04-28T16:54:06.798Z,14.98
2023-04-28T16:56:33.322Z,15.02
2023-04-28T16:58:59.902Z,15.04
2023-04-28T17:01:26.531Z,15.10
2023-04-28T17:03:53.383Z,15.17
2023-04-28T17:06:21.408Z,15.22
2023-04-28T17:08:47.963Z,15.23
2023-04-28T17:11:16.306Z,15.26
2023-04-28T17:13:42.920Z,15.28
2023-04-28T17:16:09.577Z,15.28
2023-04-28T17:18:36.149Z,15.23
2023-04-28T17:21:02.856Z,15.20
2023-04-28T17:23:30.767Z,15.17
2023-04-28T17:25:57.375Z,15.16
2023-04-28T17:28:24.103Z,15.19
2023-04-28T17:30:50.701Z,15.19
2023-04-28T17:33:17.313Z,15.16
2023-04-28T17:35:43.904Z,15.18
2023-04-28T17:38:10.489Z,15.18
2023-04-28T17:40:38.438Z,15.21
2023-04-28T17:43:05.090Z,15.19
2023-04-28T17:45:31.667Z,15.16
2023-04-28T17:47:58.356Z,15.15
2023-04-28T17:50:25.007Z,15.11
2023-04-28T17:52:51.611Z,15.08
2023-04-28T17:55:18.399Z,15.07
2023-04-28T17:57:46.332Z,15.03
2023-04-28T18:00:14.326Z,15.05
2023-04-28T18:05:12.403Z,15.02
2023-04-28T18:07:39.351Z,14.98
2023-04-28T18:10:06.356Z,14.97
2023-04-28T18:12:32.970Z,15.02
2023-04-28T18:15:00.936Z,14.99
2023-04-28T18:17:27.536Z,14.99
2023-04-28T18:19:54.129Z,14.96
2023-04-28T18:22:20.753Z,14.96
2023-04-28T18:24:47.281Z,14.90
2023-04-28T18:27:13.949Z,14.91
2023-04-28T18:29:40.487Z,14.93
2023-04-28T18:32:08.721Z,14.89
2023-04-28T18:34:35.797Z,14.87
2023-04-28T18:37:02.390Z,14.84
2023-04-28T18:39:28.941Z,14.83
2023-04-28T18:41:55.520Z,14.77
2023-04-28T18:44:22.147Z,14.75
2023-04-28T18:46:48.772Z,14.69
2023-04-28T18:49:16.847Z,14.67
2023-04-28T18:51:43.468Z,14.64
2023-04-28T18:54:10.206Z,14.59
2023-04-28T18:56:36.917Z,14.60
2023-04-28T18:59:03.503Z,14.49
2023-04-28T19:01:30.294Z,14.45
2023-04-28T19:03:57.082Z,14.39
2023-04-28T19:06:25.473Z,14.33
2023-04-28T19:08:52.043Z,14.30
2023-04-28T19:11:18.673Z,14.28
2023-04-28T19:13:45.254Z,14.23
2023-04-28T19:16:11.819Z,14.18
2023-04-28T19:18:38.415Z,14.17
2023-04-28T19:21:05.261Z,14.13
2023-04-28T19:23:33.197Z,14.10
2023-04-28T19:26:00.196Z,14.12
2023-04-28T19:28:27.126Z,14.09
2023-04-28T19:30:54.613Z,14.11
2023-04-28T19:33:21.428Z,14.09
2023-04-28T19:35:48.219Z,14.08
2023-04-28T19:38:14.789Z,14.05
2023-04-28T19:40:42.872Z,14.01
2023-04-28T19:43:09.477Z,13.95
2023-04-28T19:45:36.003Z,13.93
2023-04-28T19:48:02.699Z,13.90
2023-04-28T19:50:29.282Z,13.85
2023-04-28T19:52:55.921Z,13.81
2023-04-28T19:55:23.245Z,13.80
2023-04-28T19:57:51.218Z,13.76
2023-04-28T20:00:18.307Z,13.73
2023-04-28T20:02:45.041Z,13.69
2023-04-28T20:05:11.835Z,13.69
2023-04-28T20:07:38.697Z,13.67
2023-04-28T20:10:06.265Z,13.63
2023-04-28T20:12:32.804Z,13.61
2023-04-28T20:15:00.834Z,13.57
2023-04-28T20:17:27.680Z,13.57
2023-04-28T20:19:54.335Z,13.53
2023-04-28T20:22:20.877Z,13.50
2023-04-28T20:24:47.475Z,13.45
2023-04-28T20:27:14.063Z,13.43
2023-04-28T20:29:40.683Z,13.40
2023-04-28T20:32:08.704Z,13.39
2023-04-28T20:34:36.223Z,13.35
2023-04-28T20:37:03.045Z,13.31
2023-04-28T20:39:29.648Z,13.32
2023-04-28T20:41:56.415Z,13.32
2023-04-28T20:44:23.005Z,13.34
2023-04-28T20:46:49.800Z,13.30
2023-04-28T20:49:18.053Z,13.32
2023-04-28T20:51:44.675Z,13.27
2023-04-28T20:54:11.399Z,13.26
2023-04-28T20:56:38.062Z,13.28
2023-04-28T20:59:04.793Z,13.26
2023-04-28T21:01:31.462Z,13.20
2023-04-28T21:03:58.220Z,13.19
2023-04-28T21:06:26.319Z,13.16
2023-04-28T21:08:53.117Z,13.16
2023-04-28T21:11:19.755Z,13.11
2023-04-28T21:13:46.302Z,13.12
2023-04-28T21:16:13.730Z,13.10
2023-04-28T21:18:40.347Z,13.05
2023-04-28T21:21:06.909Z,13.03
2023-04-28T21:23:34.871Z,13.00
2023-04-28T21:26:01.472Z,12.95
2023-04-28T21:28:28.151Z,12.95
2023-04-28T21:30:54.906Z,12.94
2023-04-28T21:33:21.528Z,12.89
2023-04-28T21:35:48.348Z,12.87
2023-04-28T21:38:15.165Z,12.81
2023-04-28T21:40:43.022Z,12.78
2023-04-28T21:43:09.681Z,12.77
2023-04-28T21:45:36.396Z,12.74
2023-04-28T21:48:03.018Z,12.68
2023-04-28T21:50:30.366Z,12.62
2023-04-28T21:52:56.930Z,12.61
2023-04-28T21:55:23.555Z,12.62
2023-04-28T21:57:51.458Z,12.55
2023-04-28T22:00:18.103Z,12.55
2023-04-28T22:02:45.571Z,12.47
2023-04-28T22:05:12.477Z,12.43
2023-04-28T22:07:39.019Z,12.39
2023-04-28T22:10:07.173Z,12.36
2023-04-28T22:12:33.713Z,12.31
2023-04-28T22:15:01.657Z,12.28
2023-04-28T22:17:28.490Z,12.25
2023-04-28T22:19:55.128Z,12.23
2023-04-28T22:22:21.738Z,12.23
2023-04-28T22:24:48.383Z,12.19
2023-04-28T22:27:15.224Z,12.19
2023-04-28T22:29:41.966Z,12.16
2023-04-28T22:32:10.008Z,12.15
2023-04-28T22:34:36.775Z,12.14
2023-04-28T22:37:03.335Z,12.11
2023-04-28T22:39:29.884Z,12.06
2023-04-28T22:41:56.627Z,12.04
2023-04-28T22:44:23.284Z,12.03
2023-04-28T22:46:50.245Z,11.97
2023-04-28T22:49:18.158Z,11.95
2023-04-28T22:51:46.074Z,11.91
2023-04-28T22:54:13.861Z,11.89
2023-04-28T22:56:40.599Z,11.84
2023-04-28T22:59:07.434Z,11.85
2023-04-28T23:01:34.102Z,11.84
2023-04-28T23:04:00.973Z,11.81
2023-04-28T23:06:29.204Z,11.82
2023-04-28T23:08:55.872Z,11.83
2023-04-28T23:11:22.434Z,11.80
2023-04-28T23:13:49.058Z,11.78
2023-04-28T23:16:15.929Z,11.75
2023-04-28T23:18:42.609Z,11.70
2023-04-28T23:21:09.399Z,11.66
2023-04-28T23:23:37.374Z,11.61
2023-04-28T23:26:04.176Z,11.61
2023-04-28T23:28:30.772Z,11.61
2023-04-28T23:30:57.519Z,11.60
2023-04-28T23:33:24.204Z,11.52
2023-04-28T23:35:50.751Z,11.49
2023-04-28T23:38:17.333Z,11.48
2023-04-28T23:40:45.227Z,11.47
2023-04-28T23:43:11.932Z,11.46
2023-04-28T23:45:38.528Z,11.44
2023-04-28T23:48:05.958Z,11.41
2023-04-28T23:50:32.599Z,11.41
2023-04-28T23:52:59.174Z,11.38
2023-04-28T23:55:25.806Z,11.39
2023-04-28T23:57:53.734Z,11.38
